sensor_id;sensor_type;location;lat;lon;timestamp;pressure;altitude;pressure_sealevel;temperature;humidity
13486;BME280;6815;59.336;17.998;2022-12-18T00:01:04;99847.97;;;-12.78;100.00
13486;BME280;6815;59.336;17.998;2022-12-18T00:03:33;99852.16;;;-12.79;100.00
13486;BME280;6815;59.336;17.998;2022-12-18T00:05:59;99866.50;;;-12.66;100.00
13486;BME280;6815;59.336;17.998;2022-12-18T00:08:24;99872.66;;;-12.63;100.00
13486;BME280;6815;59.336;17.998;2022-12-18T00:10:50;99855.00;;;-12.74;100.00
13486;BME280;6815;59.336;17.998;2022-12-18T00:13:15;99855.56;;;-12.65;100.00
13486;BME280;6815;59.336;17.998;2022-12-18T00:15:41;99869.22;;;-12.63;100.00
13486;BME280;6815;59.336;17.998;2022-12-18T00:18:06;99870.03;;;-12.64;100.00
13486;BME280;6815;59.336;17.998;2022-12-18T00:20:36;99859.78;;;-12.66;100.00
13486;BME280;6815;59.336;17.998;2022-12-18T00:23:02;99877.75;;;-12.63;100.00
13486;BME280;6815;59.336;17.998;2022-12-18T00:25:27;99875.09;;;-12.64;100.00
13486;BME280;6815;59.336;17.998;2022-12-18T00:27:52;99865.34;;;-12.71;100.00
13486;BME280;6815;59.336;17.998;2022-12-18T00:30:19;99879.31;;;-12.65;100.00
13486;BME280;6815;59.336;17.998;2022-12-18T00:32:44;99861.72;;;-12.62;100.00
13486;BME280;6815;59.336;17.998;2022-12-18T00:35:10;99835.25;;;-12.78;100.00
13486;BME280;6815;59.336;17.998;2022-12-18T00:37:36;99864.16;;;-12.63;100.00
13486;BME280;6815;59.336;17.998;2022-12-18T00:40:02;99852.44;;;-12.61;100.00
13486;BME280;6815;59.336;17.998;2022-12-18T00:42:27;99844.81;;;-12.61;100.00
13486;BME280;6815;59.336;17.998;2022-12-18T00:45:11;99860.31;;;-12.56;100.00
13486;BME280;6815;59.336;17.998;2022-12-18T00:47:36;99828.50;;;-12.65;100.00
13486;BME280;6815;59.336;17.998;2022-12-18T00:50:02;99839.06;;;-12.59;100.00
13486;BME280;6815;59.336;17.998;2022-12-18T00:52:28;99843.25;;;-12.59;100.00
13486;BME280;6815;59.336;17.998;2022-12-18T00:54:53;99835.53;;;-12.61;100.00
13486;BME280;6815;59.336;17.998;2022-12-18T00:57:18;99850.97;;;-12.57;100.00
13486;BME280;6815;59.336;17.998;2022-12-18T00:59:44;99825.47;;;-12.72;100.00
13486;BME280;6815;59.336;17.998;2022-12-18T01:02:10;99845.69;;;-12.61;100.00
13486;BME280;6815;59.336;17.998;2022-12-18T01:04:35;99833.47;;;-12.66;100.00
13486;BME280;6815;59.336;17.998;2022-12-18T01:07:00;99842.00;;;-12.66;100.00
13486;BME280;6815;59.336;17.998;2022-12-18T01:09:26;99850.56;;;-12.64;100.00
13486;BME280;6815;59.336;17.998;2022-12-18T01:11:52;99844.81;;;-12.61;100.00
13486;BME280;6815;59.336;17.998;2022-12-18T01:14:18;99855.16;;;-12.58;100.00
13486;BME280;6815;59.336;17.998;2022-12-18T01:16:43;99844.44;;;-12.67;100.00
13486;BME280;6815;59.336;17.998;2022-12-18T01:19:09;99849.91;;;-12.61;100.00
13486;BME280;6815;59.336;17.998;2022-12-18T01:21:35;99855.78;;;-12.62;100.00
13486;BME280;6815;59.336;17.998;2022-12-18T01:24:01;99862.59;;;-12.61;100.00
13486;BME280;6815;59.336;17.998;2022-12-18T01:26:27;99857.94;;;-12.68;100.00
13486;BME280;6815;59.336;17.998;2022-12-18T01:28:55;99867.59;;;-12.63;100.00
13486;BME280;6815;59.336;17.998;2022-12-18T01:31:31;99862.97;;;-12.55;100.00
13486;BME280;6815;59.336;17.998;2022-12-18T01:33:57;99862.00;;;-12.57;100.00
13486;BME280;6815;59.336;17.998;2022-12-18T01:36:27;99865.31;;;-12.58;100.00
13486;BME280;6815;59.336;17.998;2022-12-18T01:38:55;99857.44;;;-12.63;100.00
13486;BME280;6815;59.336;17.998;2022-12-18T01:41:24;99836.75;;;-12.69;100.00
13486;BME280;6815;59.336;17.998;2022-12-18T01:43:54;99849.59;;;-12.52;100.00
13486;BME280;6815;59.336;17.998;2022-12-18T01:46:25;99829.19;;;-12.67;100.00
13486;BME280;6815;59.336;17.998;2022-12-18T01:48:59;99818.72;;;-12.59;100.00
13486;BME280;6815;59.336;17.998;2022-12-18T01:51:27;99830.94;;;-12.53;100.00
13486;BME280;6815;59.336;17.998;2022-12-18T01:53:53;99831.63;;;-12.55;100.00
13486;BME280;6815;59.336;17.998;2022-12-18T01:56:20;99839.63;;;-12.49;100.00
13486;BME280;6815;59.336;17.998;2022-12-18T01:59:02;99834.25;;;-12.54;100.00
13486;BME280;6815;59.336;17.998;2022-12-18T02:01:29;99838.94;;;-12.47;100.00
13486;BME280;6815;59.336;17.998;2022-12-18T02:03:55;99840.31;;;-12.52;100.00
13486;BME280;6815;59.336;17.998;2022-12-18T02:06:37;99831.13;;;-12.50;100.00
13486;BME280;6815;59.336;17.998;2022-12-18T02:09:13;99838.94;;;-12.47;100.00
13486;BME280;6815;59.336;17.998;2022-12-18T02:11:52;99837.28;;;-12.46;100.00
13486;BME280;6815;59.336;17.998;2022-12-18T02:17:06;99835.69;;;-12.44;100.00
13486;BME280;6815;59.336;17.998;2022-12-18T02:19:39;99829.72;;;-12.45;100.00
13486;BME280;6815;59.336;17.998;2022-12-18T02:27:36;99822.09;;;-12.45;100.00
13486;BME280;6815;59.336;17.998;2022-12-18T02:30:04;99833.81;;;-12.33;100.00
13486;BME280;6815;59.336;17.998;2022-12-18T02:32:34;99831.50;;;-12.44;100.00
13486;BME280;6815;59.336;17.998;2022-12-18T02:35:04;99836.25;;;-12.35;100.00
13486;BME280;6815;59.336;17.998;2022-12-18T02:37:32;99846.78;;;-12.29;100.00
13486;BME280;6815;59.336;17.998;2022-12-18T02:39:59;99822.28;;;-12.42;100.00
13486;BME280;6815;59.336;17.998;2022-12-18T02:42:27;99826.00;;;-12.37;100.00
13486;BME280;6815;59.336;17.998;2022-12-18T02:44:56;99821.97;;;-12.33;100.00
13486;BME280;6815;59.336;17.998;2022-12-18T02:47:24;99815.16;;;-12.34;100.00
13486;BME280;6815;59.336;17.998;2022-12-18T02:52:41;99820.31;;;-12.32;100.00
13486;BME280;6815;59.336;17.998;2022-12-18T03:00:43;99815.59;;;-12.26;100.00
13486;BME280;6815;59.336;17.998;2022-12-18T03:03:18;99823.03;;;-12.29;100.00
13486;BME280;6815;59.336;17.998;2022-12-18T03:05:53;99823.09;;;-12.43;100.00
13486;BME280;6815;59.336;17.998;2022-12-18T03:08:34;99810.00;;;-12.49;100.00
13486;BME280;6815;59.336;17.998;2022-12-18T03:11:09;99805.91;;;-12.47;100.00
13486;BME280;6815;59.336;17.998;2022-12-18T03:16:03;99771.34;;;-12.58;100.00
13486;BME280;6815;59.336;17.998;2022-12-18T03:18:39;99770.97;;;-12.64;100.00
13486;BME280;6815;59.336;17.998;2022-12-18T03:21:08;99764.16;;;-12.65;100.00
13486;BME280;6815;59.336;17.998;2022-12-18T03:23:40;99761.56;;;-12.52;100.00
13486;BME280;6815;59.336;17.998;2022-12-18T03:26:11;99759.72;;;-12.54;100.00
13486;BME280;6815;59.336;17.998;2022-12-18T03:28:44;99754.00;;;-12.65;100.00
13486;BME280;6815;59.336;17.998;2022-12-18T03:31:12;99749.28;;;-12.59;100.00
13486;BME280;6815;59.336;17.998;2022-12-18T03:33:47;99757.16;;;-12.54;100.00
13486;BME280;6815;59.336;17.998;2022-12-18T03:36:16;99757.09;;;-12.56;100.00
13486;BME280;6815;59.336;17.998;2022-12-18T03:38:41;99750.41;;;-12.54;100.00
13486;BME280;6815;59.336;17.998;2022-12-18T03:46:28;99765.09;;;-12.63;100.00
13486;BME280;6815;59.336;17.998;2022-12-18T03:48:59;99751.72;;;-12.61;100.00
13486;BME280;6815;59.336;17.998;2022-12-18T03:54:31;99732.88;;;-12.64;100.00
13486;BME280;6815;59.336;17.998;2022-12-18T03:57:02;99739.72;;;-12.63;100.00
13486;BME280;6815;59.336;17.998;2022-12-18T03:59:30;99733.94;;;-12.61;100.00
13486;BME280;6815;59.336;17.998;2022-12-18T04:01:57;99734.63;;;-12.63;100.00
13486;BME280;6815;59.336;17.998;2022-12-18T04:04:26;99745.84;;;-12.60;100.00
13486;BME280;6815;59.336;17.998;2022-12-18T04:06:53;99748.91;;;-12.65;100.00
13486;BME280;6815;59.336;17.998;2022-12-18T04:09:19;99750.94;;;-12.60;100.00
13486;BME280;6815;59.336;17.998;2022-12-18T04:11:46;99739.91;;;-12.60;100.00
13486;BME280;6815;59.336;17.998;2022-12-18T04:14:12;99769.19;;;-12.52;100.00
13486;BME280;6815;59.336;17.998;2022-12-18T04:16:37;99771.63;;;-12.53;100.00
13486;BME280;6815;59.336;17.998;2022-12-18T04:19:03;99760.44;;;-12.70;100.00
13486;BME280;6815;59.336;17.998;2022-12-18T04:21:29;99764.72;;;-12.69;100.00
13486;BME280;6815;59.336;17.998;2022-12-18T04:23:54;99757.72;;;-12.73;100.00
13486;BME280;6815;59.336;17.998;2022-12-18T04:26:20;99758.03;;;-12.69;100.00
13486;BME280;6815;59.336;17.998;2022-12-18T04:28:46;99773.63;;;-12.63;100.00
13486;BME280;6815;59.336;17.998;2022-12-18T04:31:12;99764.16;;;-12.65;100.00
13486;BME280;6815;59.336;17.998;2022-12-18T04:33:38;99758.28;;;-12.64;100.00
13486;BME280;6815;59.336;17.998;2022-12-18T04:36:03;99750.59;;;-12.66;100.00
13486;BME280;6815;59.336;17.998;2022-12-18T04:38:29;99771.53;;;-12.55;100.00
13486;BME280;6815;59.336;17.998;2022-12-18T04:40:54;99765.22;;;-12.62;100.00
13486;BME280;6815;59.336;17.998;2022-12-18T04:43:20;99763.09;;;-12.69;100.00
13486;BME280;6815;59.336;17.998;2022-12-18T04:45:45;99750.03;;;-12.75;100.00
13486;BME280;6815;59.336;17.998;2022-12-18T04:48:11;99749.72;;;-12.79;100.00
13486;BME280;6815;59.336;17.998;2022-12-18T04:50:36;99754.50;;;-12.71;100.00
13486;BME280;6815;59.336;17.998;2022-12-18T04:53:02;99759.84;;;-12.66;100.00
13486;BME280;6815;59.336;17.998;2022-12-18T04:55:27;99732.81;;;-12.66;100.00
13486;BME280;6815;59.336;17.998;2022-12-18T04:57:52;99717.22;;;-12.72;100.00
13486;BME280;6815;59.336;17.998;2022-12-18T05:00:18;99708.97;;;-12.68;100.00
13486;BME280;6815;59.336;17.998;2022-12-18T05:02:43;99702.16;;;-12.69;100.00
13486;BME280;6815;59.336;17.998;2022-12-18T05:05:09;99700.13;;;-12.74;100.00
13486;BME280;6815;59.336;17.998;2022-12-18T05:07:35;99693.44;;;-12.72;100.00
13486;BME280;6815;59.336;17.998;2022-12-18T05:10:00;99707.41;;;-12.66;100.00
13486;BME280;6815;59.336;17.998;2022-12-18T05:12:26;99704.88;;;-12.66;100.00
13486;BME280;6815;59.336;17.998;2022-12-18T05:14:51;99675.75;;;-12.86;100.00
13486;BME280;6815;59.336;17.998;2022-12-18T05:17:16;99674.63;;;-12.76;100.00
13486;BME280;6815;59.336;17.998;2022-12-18T05:19:42;99689.28;;;-12.72;100.00
13486;BME280;6815;59.336;17.998;2022-12-18T05:22:08;99672.00;;;-12.77;100.00
13486;BME280;6815;59.336;17.998;2022-12-18T05:24:33;99685.16;;;-12.70;100.00
13486;BME280;6815;59.336;17.998;2022-12-18T05:27:00;99667.38;;;-12.85;100.00
13486;BME280;6815;59.336;17.998;2022-12-18T05:29:26;99678.56;;;-12.81;100.00
13486;BME280;6815;59.336;17.998;2022-12-18T05:31:52;99681.47;;;-12.75;100.00
13486;BME280;6815;59.336;17.998;2022-12-18T05:34:17;99683.41;;;-12.71;100.00
13486;BME280;6815;59.336;17.998;2022-12-18T05:36:43;99677.88;;;-12.64;100.00
13486;BME280;6815;59.336;17.998;2022-12-18T05:39:08;99694.28;;;-12.59;100.00
13486;BME280;6815;59.336;17.998;2022-12-18T05:41:34;99674.13;;;-12.70;100.00
13486;BME280;6815;59.336;17.998;2022-12-18T05:43:59;99681.59;;;-12.59;100.00
13486;BME280;6815;59.336;17.998;2022-12-18T05:46:25;99661.09;;;-12.62;100.00
13486;BME280;6815;59.336;17.998;2022-12-18T05:48:51;99676.66;;;-12.70;100.00
13486;BME280;6815;59.336;17.998;2022-12-18T05:51:18;99683.16;;;-12.61;100.00
13486;BME280;6815;59.336;17.998;2022-12-18T05:53:45;99679.94;;;-12.58;100.00
13486;BME280;6815;59.336;17.998;2022-12-18T05:56:13;99684.38;;;-12.54;100.00
13486;BME280;6815;59.336;17.998;2022-12-18T05:58:40;99681.66;;;-12.57;100.00
13486;BME280;6815;59.336;17.998;2022-12-18T06:03:35;99671.09;;;-12.50;100.00
13486;BME280;6815;59.336;17.998;2022-12-18T06:06:01;99657.06;;;-12.58;100.00
13486;BME280;6815;59.336;17.998;2022-12-18T06:08:27;99668.03;;;-12.59;100.00
13486;BME280;6815;59.336;17.998;2022-12-18T06:10:52;99660.03;;;-12.65;100.00
13486;BME280;6815;59.336;17.998;2022-12-18T06:13:19;99658.72;;;-12.59;100.00
13486;BME280;6815;59.336;17.998;2022-12-18T06:15:45;99656.44;;;-12.54;100.00
13486;BME280;6815;59.336;17.998;2022-12-18T06:18:10;99648.56;;;-12.59;100.00
13486;BME280;6815;59.336;17.998;2022-12-18T06:20:36;99665.03;;;-12.52;100.00
13486;BME280;6815;59.336;17.998;2022-12-18T06:23:02;99665.56;;;-12.57;100.00
13486;BME280;6815;59.336;17.998;2022-12-18T06:25:29;99659.50;;;-12.60;100.00
13486;BME280;6815;59.336;17.998;2022-12-18T06:27:54;99655.50;;;-12.56;100.00
13486;BME280;6815;59.336;17.998;2022-12-18T06:30:20;99661.00;;;-12.48;100.00
13486;BME280;6815;59.336;17.998;2022-12-18T06:32:47;99642.00;;;-12.55;100.00
13486;BME280;6815;59.336;17.998;2022-12-18T06:35:13;99669.69;;;-12.45;100.00
13486;BME280;6815;59.336;17.998;2022-12-18T06:37:38;99644.63;;;-12.53;100.00
13486;BME280;6815;59.336;17.998;2022-12-18T06:40:04;99647.25;;;-12.52;100.00
13486;BME280;6815;59.336;17.998;2022-12-18T06:42:30;99652.59;;;-12.47;100.00
13486;BME280;6815;59.336;17.998;2022-12-18T06:44:56;99636.22;;;-12.52;100.00
13486;BME280;6815;59.336;17.998;2022-12-18T06:47:21;99624.75;;;-12.61;100.00
13486;BME280;6815;59.336;17.998;2022-12-18T06:49:46;99633.16;;;-12.62;100.00
13486;BME280;6815;59.336;17.998;2022-12-18T06:52:12;99643.69;;;-12.55;100.00
13486;BME280;6815;59.336;17.998;2022-12-18T06:54:37;99659.34;;;-12.48;100.00
13486;BME280;6815;59.336;17.998;2022-12-18T06:57:03;99646.97;;;-12.56;100.00
13486;BME280;6815;59.336;17.998;2022-12-18T06:59:28;99652.84;;;-12.57;100.00
13486;BME280;6815;59.336;17.998;2022-12-18T07:01:54;99638.50;;;-12.57;100.00
13486;BME280;6815;59.336;17.998;2022-12-18T07:04:19;99650.97;;;-12.47;100.00
13486;BME280;6815;59.336;17.998;2022-12-18T07:06:45;99650.59;;;-12.53;100.00
13486;BME280;6815;59.336;17.998;2022-12-18T07:09:10;99657.78;;;-12.46;100.00
13486;BME280;6815;59.336;17.998;2022-12-18T07:11:35;99645.53;;;-12.53;100.00
13486;BME280;6815;59.336;17.998;2022-12-18T07:14:01;99665.13;;;-12.50;100.00
13486;BME280;6815;59.336;17.998;2022-12-18T07:16:26;99647.69;;;-12.59;100.00
13486;BME280;6815;59.336;17.998;2022-12-18T07:18:54;99646.03;;;-12.59;100.00
13486;BME280;6815;59.336;17.998;2022-12-18T07:21:21;99661.31;;;-12.44;100.00
13486;BME280;6815;59.336;17.998;2022-12-18T07:23:47;99666.13;;;-12.33;100.00
13486;BME280;6815;59.336;17.998;2022-12-18T07:26:14;99647.00;;;-12.42;100.00
13486;BME280;6815;59.336;17.998;2022-12-18T07:28:40;99665.44;;;-12.31;100.00
13486;BME280;6815;59.336;17.998;2022-12-18T07:31:14;99667.41;;;-12.25;100.00
13486;BME280;6815;59.336;17.998;2022-12-18T07:33:39;99662.63;;;-12.21;100.00
13486;BME280;6815;59.336;17.998;2022-12-18T07:36:07;99660.25;;;-12.18;100.00
13486;BME280;6815;59.336;17.998;2022-12-18T07:38:33;99655.97;;;-12.19;100.00
13486;BME280;6815;59.336;17.998;2022-12-18T07:41:09;99648.06;;;-12.23;100.00
13486;BME280;6815;59.336;17.998;2022-12-18T07:43:35;99662.97;;;-12.15;100.00
13486;BME280;6815;59.336;17.998;2022-12-18T07:46:01;99642.91;;;-12.25;100.00
13486;BME280;6815;59.336;17.998;2022-12-18T07:48:28;99651.94;;;-12.15;100.00
13486;BME280;6815;59.336;17.998;2022-12-18T07:50:53;99640.91;;;-12.16;100.00
13486;BME280;6815;59.336;17.998;2022-12-18T07:53:19;99663.84;;;-12.14;100.00
13486;BME280;6815;59.336;17.998;2022-12-18T07:55:44;99664.28;;;-12.21;100.00
13486;BME280;6815;59.336;17.998;2022-12-18T07:58:09;99646.91;;;-12.28;100.00
13486;BME280;6815;59.336;17.998;2022-12-18T08:00:36;99661.81;;;-12.20;100.00
13486;BME280;6815;59.336;17.998;2022-12-18T08:03:02;99642.97;;;-12.23;100.00
13486;BME280;6815;59.336;17.998;2022-12-18T08:05:27;99660.06;;;-12.21;100.00
13486;BME280;6815;59.336;17.998;2022-12-18T08:07:54;99653.06;;;-12.25;100.00
13486;BME280;6815;59.336;17.998;2022-12-18T08:10:21;99673.66;;;-12.05;100.00
13486;BME280;6815;59.336;17.998;2022-12-18T08:12:50;99653.84;;;-12.11;100.00
13486;BME280;6815;59.336;17.998;2022-12-18T08:15:16;99670.50;;;-12.01;100.00
13486;BME280;6815;59.336;17.998;2022-12-18T08:17:42;99643.22;;;-12.04;100.00
13486;BME280;6815;59.336;17.998;2022-12-18T08:20:08;99644.09;;;-12.03;100.00
13486;BME280;6815;59.336;17.998;2022-12-18T08:22:34;99643.34;;;-12.02;100.00
13486;BME280;6815;59.336;17.998;2022-12-18T08:25:00;99612.22;;;-12.13;100.00
13486;BME280;6815;59.336;17.998;2022-12-18T08:27:26;99626.47;;;-12.00;100.00
13486;BME280;6815;59.336;17.998;2022-12-18T08:29:51;99626.06;;;-11.93;100.00
13486;BME280;6815;59.336;17.998;2022-12-18T08:32:17;99620.88;;;-11.95;100.00
13486;BME280;6815;59.336;17.998;2022-12-18T08:34:42;99575.41;;;-12.20;100.00
13486;BME280;6815;59.336;17.998;2022-12-18T08:37:07;99620.09;;;-11.94;100.00
13486;BME280;6815;59.336;17.998;2022-12-18T08:39:34;99636.69;;;-11.84;100.00
13486;BME280;6815;59.336;17.998;2022-12-18T08:42:00;99647.75;;;-11.83;100.00
13486;BME280;6815;59.336;17.998;2022-12-18T08:44:44;99635.75;;;-11.86;100.00
13486;BME280;6815;59.336;17.998;2022-12-18T08:47:09;99643.00;;;-11.77;100.00
13486;BME280;6815;59.336;17.998;2022-12-18T08:49:35;99645.72;;;-11.74;100.00
13486;BME280;6815;59.336;17.998;2022-12-18T08:52:00;99626.88;;;-11.78;100.00
13486;BME280;6815;59.336;17.998;2022-12-18T08:54:29;99645.34;;;-11.66;100.00
13486;BME280;6815;59.336;17.998;2022-12-18T08:56:54;99632.63;;;-11.66;100.00
13486;BME280;6815;59.336;17.998;2022-12-18T08:59:21;99649.97;;;-11.58;100.00
13486;BME280;6815;59.336;17.998;2022-12-18T09:01:47;99631.13;;;-11.62;100.00
13486;BME280;6815;59.336;17.998;2022-12-18T09:04:13;99635.31;;;-11.62;100.00
13486;BME280;6815;59.336;17.998;2022-12-18T09:06:39;99623.31;;;-11.65;100.00
13486;BME280;6815;59.336;17.998;2022-12-18T09:09:05;99642.25;;;-11.60;100.00
13486;BME280;6815;59.336;17.998;2022-12-18T09:11:32;99625.94;;;-11.63;100.00
13486;BME280;6815;59.336;17.998;2022-12-18T09:14:00;99629.53;;;-11.60;100.00
13486;BME280;6815;59.336;17.998;2022-12-18T09:16:27;99639.44;;;-11.50;100.00
13486;BME280;6815;59.336;17.998;2022-12-18T09:18:54;99641.34;;;-11.46;100.00
13486;BME280;6815;59.336;17.998;2022-12-18T09:21:25;99628.44;;;-11.49;100.00
13486;BME280;6815;59.336;17.998;2022-12-18T09:23:52;99627.56;;;-11.49;100.00
13486;BME280;6815;59.336;17.998;2022-12-18T09:26:18;99622.97;;;-11.40;100.00
13486;BME280;6815;59.336;17.998;2022-12-18T09:28:43;99626.72;;;-11.33;100.00
13486;BME280;6815;59.336;17.998;2022-12-18T09:31:11;99612.31;;;-11.33;100.00
13486;BME280;6815;59.336;17.998;2022-12-18T09:33:37;99593.97;;;-11.44;100.00
13486;BME280;6815;59.336;17.998;2022-12-18T09:36:04;99617.19;;;-11.21;100.00
13486;BME280;6815;59.336;17.998;2022-12-18T09:38:31;99616.06;;;-11.26;100.00
13486;BME280;6815;59.336;17.998;2022-12-18T09:41:26;99601.06;;;-11.22;100.00
13486;BME280;6815;59.336;17.998;2022-12-18T09:43:55;99546.56;;;-11.42;100.00
13486;BME280;6815;59.336;17.998;2022-12-18T09:46:27;99568.91;;;-11.20;100.00
13486;BME280;6815;59.336;17.998;2022-12-18T09:48:59;99578.69;;;-11.11;100.00
13486;BME280;6815;59.336;17.998;2022-12-18T09:51:35;99565.09;;;-11.11;100.00
13486;BME280;6815;59.336;17.998;2022-12-18T09:54:15;99547.88;;;-11.15;100.00
13486;BME280;6815;59.336;17.998;2022-12-18T09:56:43;99568.81;;;-11.05;100.00
13486;BME280;6815;59.336;17.998;2022-12-18T09:59:37;99567.69;;;-11.10;100.00
13486;BME280;6815;59.336;17.998;2022-12-18T10:02:23;99575.59;;;-11.05;100.00
13486;BME280;6815;59.336;17.998;2022-12-18T10:05:11;99572.66;;;-10.97;100.00
13486;BME280;6815;59.336;17.998;2022-12-18T10:15:34;99554.88;;;-10.95;100.00
13486;BME280;6815;59.336;17.998;2022-12-18T10:20:48;99534.72;;;-10.90;100.00
13486;BME280;6815;59.336;17.998;2022-12-18T10:23:32;99547.88;;;-10.83;100.00
13486;BME280;6815;59.336;17.998;2022-12-18T10:26:05;99554.63;;;-10.83;100.00
13486;BME280;6815;59.336;17.998;2022-12-18T10:28:33;99541.34;;;-10.78;100.00
13486;BME280;6815;59.336;17.998;2022-12-18T10:30:58;99533.59;;;-10.79;100.00
13486;BME280;6815;59.336;17.998;2022-12-18T10:33:29;99564.41;;;-10.75;100.00
13486;BME280;6815;59.336;17.998;2022-12-18T10:35:54;99567.75;;;-10.76;100.00
13486;BME280;6815;59.336;17.998;2022-12-18T10:38:29;99536.25;;;-10.78;100.00
13486;BME280;6815;59.336;17.998;2022-12-18T10:40:58;99551.75;;;-10.73;100.00
13486;BME280;6815;59.336;17.998;2022-12-18T10:43:29;99577.53;;;-10.67;100.00
13486;BME280;6815;59.336;17.998;2022-12-18T10:46:08;99562.09;;;-10.70;100.00
13486;BME280;6815;59.336;17.998;2022-12-18T10:48:50;99548.47;;;-10.70;100.00
13486;BME280;6815;59.336;17.998;2022-12-18T10:53:54;99593.03;;;-10.62;100.00
13486;BME280;6815;59.336;17.998;2022-12-18T10:56:21;99539.06;;;-10.89;100.00
13486;BME280;6815;59.336;17.998;2022-12-18T10:59:04;99543.66;;;-10.82;100.00
13486;BME280;6815;59.336;17.998;2022-12-18T11:04:20;99533.84;;;-10.75;100.00
13486;BME280;6815;59.336;17.998;2022-12-18T11:07:03;99533.47;;;-10.82;100.00
13486;BME280;6815;59.336;17.998;2022-12-18T11:12:19;99547.63;;;-10.71;100.00
13486;BME280;6815;59.336;17.998;2022-12-18T11:14:54;99503.56;;;-10.86;100.00
13486;BME280;6815;59.336;17.998;2022-12-18T11:17:35;99553.16;;;-10.62;100.00
13486;BME280;6815;59.336;17.998;2022-12-18T11:20:05;99565.00;;;-10.62;100.00
13486;BME280;6815;59.336;17.998;2022-12-18T11:22:33;99546.00;;;-10.69;100.00
13486;BME280;6815;59.336;17.998;2022-12-18T11:27:26;99547.00;;;-10.65;100.00
13486;BME280;6815;59.336;17.998;2022-12-18T11:29:52;99542.97;;;-10.62;100.00
13486;BME280;6815;59.336;17.998;2022-12-18T11:32:28;99515.13;;;-10.75;100.00
13486;BME280;6815;59.336;17.998;2022-12-18T11:35:01;99525.19;;;-10.60;100.00
13486;BME280;6815;59.336;17.998;2022-12-18T11:37:28;99501.81;;;-10.69;100.00
13486;BME280;6815;59.336;17.998;2022-12-18T11:40:09;99545.16;;;-10.52;100.00
13486;BME280;6815;59.336;17.998;2022-12-18T11:47:41;99573.81;;;-10.39;100.00
13486;BME280;6815;59.336;17.998;2022-12-18T11:50:21;99555.41;;;-10.50;100.00
13486;BME280;6815;59.336;17.998;2022-12-18T11:52:48;99544.34;;;-10.51;100.00
13486;BME280;6815;59.336;17.998;2022-12-18T12:01:13;99547.88;;;-10.49;100.00
13486;BME280;6815;59.336;17.998;2022-12-18T12:03:55;99542.34;;;-10.40;100.00
13486;BME280;6815;59.336;17.998;2022-12-18T12:09:39;99538.69;;;-10.45;100.00
13486;BME280;6815;59.336;17.998;2022-12-18T12:12:38;99550.06;;;-10.38;100.00
13486;BME280;6815;59.336;17.998;2022-12-18T12:15:20;99549.03;;;-10.42;100.00
13486;BME280;6815;59.336;17.998;2022-12-18T12:21:16;99549.47;;;-10.33;100.00
13486;BME280;6815;59.336;17.998;2022-12-18T12:24:15;99564.78;;;-10.33;100.00
13486;BME280;6815;59.336;17.998;2022-12-18T12:38:24;99580.28;;;-10.28;100.00
13486;BME280;6815;59.336;17.998;2022-12-18T12:41:06;99585.94;;;-10.16;100.00
13486;BME280;6815;59.336;17.998;2022-12-18T12:43:53;99568.53;;;-10.25;100.00
13486;BME280;6815;59.336;17.998;2022-12-18T12:46:22;99548.47;;;-10.36;100.00
13486;BME280;6815;59.336;17.998;2022-12-18T12:48:53;99550.34;;;-10.32;100.00
13486;BME280;6815;59.336;17.998;2022-12-18T12:51:39;99573.91;;;-10.18;100.00
13486;BME280;6815;59.336;17.998;2022-12-18T12:54:13;99557.53;;;-10.23;100.00
13486;BME280;6815;59.336;17.998;2022-12-18T12:57:07;99526.75;;;-10.46;100.00
13486;BME280;6815;59.336;17.998;2022-12-18T13:04:44;99568.38;;;-10.10;100.00
13486;BME280;6815;59.336;17.998;2022-12-18T13:25:55;99558.25;;;-9.90;100.00
13486;BME280;6815;59.336;17.998;2022-12-18T13:28:49;99526.56;;;-9.95;100.00
13486;BME280;6815;59.336;17.998;2022-12-18T13:31:09;99529.31;;;-9.91;100.00
13486;BME280;6815;59.336;17.998;2022-12-18T13:38:38;99533.50;;;-9.93;100.00
13486;BME280;6815;59.336;17.998;2022-12-18T13:41:22;99537.09;;;-9.88;100.00
13486;BME280;6815;59.336;17.998;2022-12-18T13:46:42;99522.63;;;-9.89;100.00
13486;BME280;6815;59.336;17.998;2022-12-18T13:51:43;99540.47;;;-9.89;100.00
13486;BME280;6815;59.336;17.998;2022-12-18T13:54:20;99554.25;;;-9.85;100.00
13486;BME280;6815;59.336;17.998;2022-12-18T13:56:50;99561.91;;;-9.85;100.00
13486;BME280;6815;59.336;17.998;2022-12-18T14:01:44;99568.81;;;-9.83;100.00
13486;BME280;6815;59.336;17.998;2022-12-18T14:04:22;99558.38;;;-9.87;100.00
13486;BME280;6815;59.336;17.998;2022-12-18T14:06:51;99557.06;;;-9.79;100.00
13486;BME280;6815;59.336;17.998;2022-12-18T14:09:25;99572.59;;;-9.74;100.00
13486;BME280;6815;59.336;17.998;2022-12-18T14:11:51;99559.63;;;-9.79;100.00
13486;BME280;6815;59.336;17.998;2022-12-18T14:14:18;99562.38;;;-9.74;100.00
13486;BME280;6815;59.336;17.998;2022-12-18T14:16:46;99573.53;;;-9.72;100.00
13486;BME280;6815;59.336;17.998;2022-12-18T14:19:14;99552.94;;;-9.77;100.00
13486;BME280;6815;59.336;17.998;2022-12-18T14:21:45;99550.88;;;-9.84;100.00
13486;BME280;6815;59.336;17.998;2022-12-18T14:24:22;99548.94;;;-9.90;100.00
13486;BME280;6815;59.336;17.998;2022-12-18T14:26:49;99588.28;;;-9.67;100.00
13486;BME280;6815;59.336;17.998;2022-12-18T14:29:29;99580.38;;;-9.71;100.00
13486;BME280;6815;59.336;17.998;2022-12-18T14:32:12;99571.06;;;-9.71;100.00
13486;BME280;6815;59.336;17.998;2022-12-18T14:34:50;99566.84;;;-9.70;100.00
13486;BME280;6815;59.336;17.998;2022-12-18T14:37:20;99559.78;;;-9.76;100.00
13486;BME280;6815;59.336;17.998;2022-12-18T14:40:01;99565.34;;;-9.65;100.00
13486;BME280;6815;59.336;17.998;2022-12-18T14:42:41;99568.94;;;-9.62;100.00
13486;BME280;6815;59.336;17.998;2022-12-18T14:45:36;99579.16;;;-9.62;100.00
13486;BME280;6815;59.336;17.998;2022-12-18T14:48:19;99587.53;;;-9.64;100.00